sensor_id;sensor_type;location;lat;lon;timestamp;pressure;altitude;pressure_sealevel;temperature;humidity
75895;BME280;64573;50.328;15.014;2023-05-10T00:00:00;98628.06;;;9.89;55.77
75895;BME280;64573;50.328;15.014;2023-05-10T00:02:25;98617.06;;;9.84;55.27
75895;BME280;64573;50.328;15.014;2023-05-10T00:04:50;98616.53;;;9.88;55.28
75895;BME280;64573;50.328;15.014;2023-05-10T00:07:16;98619.50;;;9.79;55.78
75895;BME280;64573;50.328;15.014;2023-05-10T00:09:43;98604.06;;;9.81;56.12
75895;BME280;64573;50.328;15.014;2023-05-10T00:12:08;98616.44;;;9.82;55.91
75895;BME280;64573;50.328;15.014;2023-05-10T00:14:33;98608.41;;;9.82;56.04
75895;BME280;64573;50.328;15.014;2023-05-10T00:16:59;98605.00;;;9.73;56.26
75895;BME280;64573;50.328;15.014;2023-05-10T00:19:25;98603.97;;;9.74;56.40
75895;BME280;64573;50.328;15.014;2023-05-10T00:21:50;98601.41;;;9.81;56.34
75895;BME280;64573;50.328;15.014;2023-05-10T00:24:15;98599.63;;;9.73;56.61
75895;BME280;64573;50.328;15.014;2023-05-10T00:26:41;98601.50;;;9.73;56.23
75895;BME280;64573;50.328;15.014;2023-05-10T00:29:07;98602.59;;;9.63;57.41
75895;BME280;64573;50.328;15.014;2023-05-10T00:31:32;98600.47;;;9.59;57.04
75895;BME280;64573;50.328;15.014;2023-05-10T00:33:58;98598.72;;;9.66;56.89
75895;BME280;64573;50.328;15.014;2023-05-10T00:36:23;98592.06;;;9.62;57.61
75895;BME280;64573;50.328;15.014;2023-05-10T00:38:48;98602.50;;;9.57;57.61
75895;BME280;64573;50.328;15.014;2023-05-10T00:41:14;98608.31;;;9.60;57.30
75895;BME280;64573;50.328;15.014;2023-05-10T00:43:39;98596.69;;;9.68;56.70
75895;BME280;64573;50.328;15.014;2023-05-10T00:46:04;98595.56;;;9.62;57.16
75895;BME280;64573;50.328;15.014;2023-05-10T00:48:31;98591.41;;;9.60;57.13
75895;BME280;64573;50.328;15.014;2023-05-10T00:50:57;98593.66;;;9.56;57.25
75895;BME280;64573;50.328;15.014;2023-05-10T00:53:23;98587.09;;;9.59;58.04
75895;BME280;64573;50.328;15.014;2023-05-10T00:55:48;98579.50;;;9.48;57.85
75895;BME280;64573;50.328;15.014;2023-05-10T00:58:14;98578.75;;;9.54;57.51
75895;BME280;64573;50.328;15.014;2023-05-10T01:00:41;98575.44;;;9.52;57.69
75895;BME280;64573;50.328;15.014;2023-05-10T01:03:07;98579.03;;;9.44;58.77
75895;BME280;64573;50.328;15.014;2023-05-10T01:05:32;98574.53;;;9.45;58.29
75895;BME280;64573;50.328;15.014;2023-05-10T01:07:58;98577.75;;;9.40;58.32
75895;BME280;64573;50.328;15.014;2023-05-10T01:10:23;98562.50;;;9.40;58.44
75895;BME280;64573;50.328;15.014;2023-05-10T01:12:49;98579.25;;;9.43;58.06
75895;BME280;64573;50.328;15.014;2023-05-10T01:15:15;98575.25;;;9.38;58.43
75895;BME280;64573;50.328;15.014;2023-05-10T01:17:44;98581.25;;;9.40;58.64
75895;BME280;64573;50.328;15.014;2023-05-10T01:20:11;98575.44;;;9.37;59.01
75895;BME280;64573;50.328;15.014;2023-05-10T01:34:12;98555.88;;;9.22;59.80
75895;BME280;64573;50.328;15.014;2023-05-10T01:36:45;98557.00;;;9.27;59.98
75895;BME280;64573;50.328;15.014;2023-05-10T01:39:28;98557.06;;;9.34;59.49
75895;BME280;64573;50.328;15.014;2023-05-10T01:42:13;98562.59;;;9.32;59.97
75895;BME280;64573;50.328;15.014;2023-05-10T01:44:45;98550.44;;;9.30;59.41
75895;BME280;64573;50.328;15.014;2023-05-10T01:47:17;98562.50;;;9.26;59.90
75895;BME280;64573;50.328;15.014;2023-05-10T01:49:50;98552.06;;;9.16;61.00
75895;BME280;64573;50.328;15.014;2023-05-10T01:52:18;98554.03;;;9.22;59.62
75895;BME280;64573;50.328;15.014;2023-05-10T01:54:50;98560.19;;;9.23;60.61
75895;BME280;64573;50.328;15.014;2023-05-10T01:57:19;98550.88;;;9.33;60.14
75895;BME280;64573;50.328;15.014;2023-05-10T01:59:49;98560.13;;;9.31;60.18
75895;BME280;64573;50.328;15.014;2023-05-10T02:02:15;98557.00;;;9.27;59.39
75895;BME280;64573;50.328;15.014;2023-05-10T02:04:42;98548.75;;;9.14;60.49
75895;BME280;64573;50.328;15.014;2023-05-10T02:07:09;98553.91;;;9.16;60.57
75895;BME280;64573;50.328;15.014;2023-05-10T02:09:36;98559.47;;;9.14;60.78
75895;BME280;64573;50.328;15.014;2023-05-10T02:12:03;98546.72;;;9.16;61.15
75895;BME280;64573;50.328;15.014;2023-05-10T02:14:32;98552.06;;;9.16;60.36
75895;BME280;64573;50.328;15.014;2023-05-10T02:17:00;98556.78;;;9.14;60.55
75895;BME280;64573;50.328;15.014;2023-05-10T02:19:28;98535.00;;;9.17;60.59
75895;BME280;64573;50.328;15.014;2023-05-10T02:21:55;98557.13;;;9.11;60.36
75895;BME280;64573;50.328;15.014;2023-05-10T02:24:22;98544.44;;;9.13;60.26
75895;BME280;64573;50.328;15.014;2023-05-10T02:26:49;98541.91;;;9.26;60.12
75895;BME280;64573;50.328;15.014;2023-05-10T02:29:17;98546.34;;;9.19;59.85
75895;BME280;64573;50.328;15.014;2023-05-10T02:31:44;98540.06;;;9.12;60.97
75895;BME280;64573;50.328;15.014;2023-05-10T02:34:11;98540.91;;;9.13;60.21
75895;BME280;64573;50.328;15.014;2023-05-10T02:36:38;98537.66;;;9.02;60.96
75895;BME280;64573;50.328;15.014;2023-05-10T02:39:04;98534.06;;;9.10;60.31
75895;BME280;64573;50.328;15.014;2023-05-10T02:41:35;98540.44;;;9.09;60.72
75895;BME280;64573;50.328;15.014;2023-05-10T02:44:02;98537.13;;;9.07;61.34
75895;BME280;64573;50.328;15.014;2023-05-10T02:46:28;98536.28;;;9.06;61.00
75895;BME280;64573;50.328;15.014;2023-05-10T02:48:54;98538.31;;;9.04;60.62
75895;BME280;64573;50.328;15.014;2023-05-10T02:51:24;98555.84;;;9.07;61.14
75895;BME280;64573;50.328;15.014;2023-05-10T02:53:53;98544.31;;;9.06;61.25
75895;BME280;64573;50.328;15.014;2023-05-10T02:56:42;98538.50;;;9.03;60.86
75895;BME280;64573;50.328;15.014;2023-05-10T02:59:10;98546.06;;;8.99;60.53
75895;BME280;64573;50.328;15.014;2023-05-10T03:01:36;98533.59;;;8.92;61.83
75895;BME280;64573;50.328;15.014;2023-05-10T03:04:01;98546.78;;;8.93;61.54
75895;BME280;64573;50.328;15.014;2023-05-10T03:06:26;98527.66;;;8.81;61.28
75895;BME280;64573;50.328;15.014;2023-05-10T03:08:53;98536.38;;;8.98;61.51
75895;BME280;64573;50.328;15.014;2023-05-10T03:14:08;98540.31;;;8.88;61.17
75895;BME280;64573;50.328;15.014;2023-05-10T03:16:46;98525.69;;;8.98;60.95
75895;BME280;64573;50.328;15.014;2023-05-10T03:19:25;98534.69;;;8.97;61.36
75895;BME280;64573;50.328;15.014;2023-05-10T03:21:53;98540.78;;;8.91;60.92
75895;BME280;64573;50.328;15.014;2023-05-10T03:24:21;98541.78;;;8.90;61.42
75895;BME280;64573;50.328;15.014;2023-05-10T03:26:48;98537.75;;;8.94;60.94
75895;BME280;64573;50.328;15.014;2023-05-10T03:29:15;98538.28;;;8.90;61.20
75895;BME280;64573;50.328;15.014;2023-05-10T03:31:41;98529.50;;;8.81;61.03
75895;BME280;64573;50.328;15.014;2023-05-10T03:34:07;98548.13;;;8.89;61.95
75895;BME280;64573;50.328;15.014;2023-05-10T03:36:32;98534.88;;;8.96;61.09
75895;BME280;64573;50.328;15.014;2023-05-10T03:38:58;98540.03;;;8.97;61.27
75895;BME280;64573;50.328;15.014;2023-05-10T03:41:23;98531.84;;;8.99;61.57
75895;BME280;64573;50.328;15.014;2023-05-10T03:43:50;98542.72;;;8.97;60.93
75895;BME280;64573;50.328;15.014;2023-05-10T03:46:15;98533.44;;;9.08;61.07
75895;BME280;64573;50.328;15.014;2023-05-10T03:48:40;98519.25;;;9.22;60.13
75895;BME280;64573;50.328;15.014;2023-05-10T03:51:06;98527.91;;;9.39;59.25
75895;BME280;64573;50.328;15.014;2023-05-10T03:53:31;98529.84;;;9.45;59.96
75895;BME280;64573;50.328;15.014;2023-05-10T03:55:56;98530.28;;;9.49;59.40
75895;BME280;64573;50.328;15.014;2023-05-10T03:58:22;98524.97;;;9.63;59.09
75895;BME280;64573;50.328;15.014;2023-05-10T04:00:47;98529.94;;;9.66;58.98
75895;BME280;64573;50.328;15.014;2023-05-10T04:03:12;98527.97;;;9.75;58.53
75895;BME280;64573;50.328;15.014;2023-05-10T04:05:38;98517.53;;;9.80;58.41
75895;BME280;64573;50.328;15.014;2023-05-10T04:08:04;98526.28;;;9.89;57.93
75895;BME280;64573;50.328;15.014;2023-05-10T04:10:29;98527.56;;;10.08;57.04
75895;BME280;64573;50.328;15.014;2023-05-10T04:12:55;98531.63;;;10.04;57.06
75895;BME280;64573;50.328;15.014;2023-05-10T04:15:20;98519.75;;;10.13;56.93
75895;BME280;64573;50.328;15.014;2023-05-10T04:17:46;98522.63;;;10.26;56.47
75895;BME280;64573;50.328;15.014;2023-05-10T04:20:12;98520.56;;;10.28;55.99
75895;BME280;64573;50.328;15.014;2023-05-10T04:22:37;98530.66;;;10.47;56.27
75895;BME280;64573;50.328;15.014;2023-05-10T04:25:03;98531.75;;;10.32;56.39
75895;BME280;64573;50.328;15.014;2023-05-10T04:27:29;98509.63;;;10.44;56.38
75895;BME280;64573;50.328;15.014;2023-05-10T04:29:55;98513.56;;;10.48;56.16
75895;BME280;64573;50.328;15.014;2023-05-10T04:32:20;98516.44;;;10.68;55.28
75895;BME280;64573;50.328;15.014;2023-05-10T04:34:46;98521.84;;;10.75;55.58
75895;BME280;64573;50.328;15.014;2023-05-10T04:37:11;98528.34;;;10.87;55.08
75895;BME280;64573;50.328;15.014;2023-05-10T04:39:36;98506.84;;;10.81;55.37
75895;BME280;64573;50.328;15.014;2023-05-10T04:42:03;98520.84;;;11.04;54.35
75895;BME280;64573;50.328;15.014;2023-05-10T04:44:30;98526.63;;;11.08;54.74
75895;BME280;64573;50.328;15.014;2023-05-10T04:46:55;98516.03;;;10.99;54.36
75895;BME280;64573;50.328;15.014;2023-05-10T04:49:21;98530.41;;;11.13;54.42
75895;BME280;64573;50.328;15.014;2023-05-10T04:51:46;98525.06;;;11.20;53.90
75895;BME280;64573;50.328;15.014;2023-05-10T04:54:12;98520.63;;;11.05;54.52
75895;BME280;64573;50.328;15.014;2023-05-10T04:56:37;98521.75;;;11.46;53.87
75895;BME280;64573;50.328;15.014;2023-05-10T04:59:02;98527.66;;;11.35;54.05
75895;BME280;64573;50.328;15.014;2023-05-10T05:01:28;98527.16;;;11.52;53.41
75895;BME280;64573;50.328;15.014;2023-05-10T05:03:53;98522.22;;;11.63;53.23
75895;BME280;64573;50.328;15.014;2023-05-10T05:06:19;98526.56;;;11.64;53.09
75895;BME280;64573;50.328;15.014;2023-05-10T05:08:46;98533.31;;;11.46;53.31
75895;BME280;64573;50.328;15.014;2023-05-10T05:11:11;98528.19;;;11.58;53.14
75895;BME280;64573;50.328;15.014;2023-05-10T05:13:36;98528.16;;;11.51;53.16
75895;BME280;64573;50.328;15.014;2023-05-10T05:16:02;98537.06;;;11.93;52.69
75895;BME280;64573;50.328;15.014;2023-05-10T05:18:28;98537.78;;;12.15;52.14
75895;BME280;64573;50.328;15.014;2023-05-10T05:20:53;98527.94;;;11.87;52.73
75895;BME280;64573;50.328;15.014;2023-05-10T05:23:18;98523.13;;;12.24;52.06
75895;BME280;64573;50.328;15.014;2023-05-10T05:25:46;98534.72;;;12.25;52.43
75895;BME280;64573;50.328;15.014;2023-05-10T05:28:11;98529.44;;;11.97;52.17
75895;BME280;64573;50.328;15.014;2023-05-10T05:30:37;98543.94;;;12.09;52.69
75895;BME280;64573;50.328;15.014;2023-05-10T05:33:03;98524.13;;;12.17;52.38
75895;BME280;64573;50.328;15.014;2023-05-10T05:35:28;98524.81;;;12.52;51.02
75895;BME280;64573;50.328;15.014;2023-05-10T05:37:53;98520.50;;;12.57;51.83
75895;BME280;64573;50.328;15.014;2023-05-10T05:40:19;98526.28;;;12.74;51.21
75895;BME280;64573;50.328;15.014;2023-05-10T05:42:45;98537.66;;;12.50;51.08
75895;BME280;64573;50.328;15.014;2023-05-10T05:45:10;98521.31;;;13.17;50.18
75895;BME280;64573;50.328;15.014;2023-05-10T05:47:38;98521.75;;;12.88;50.84
75895;BME280;64573;50.328;15.014;2023-05-10T05:50:04;98516.97;;;13.36;50.43
75895;BME280;64573;50.328;15.014;2023-05-10T05:52:30;98521.50;;;13.62;49.29
75895;BME280;64573;50.328;15.014;2023-05-10T05:54:55;98514.47;;;13.55;49.66
75895;BME280;64573;50.328;15.014;2023-05-10T05:57:21;98522.75;;;13.40;49.66
75895;BME280;64573;50.328;15.014;2023-05-10T05:59:46;98523.66;;;13.92;48.59
75895;BME280;64573;50.328;15.014;2023-05-10T06:02:13;98523.19;;;13.30;49.87
75895;BME280;64573;50.328;15.014;2023-05-10T06:04:38;98524.88;;;12.91;50.85
75895;BME280;64573;50.328;15.014;2023-05-10T06:07:04;98509.88;;;13.62;49.12
75895;BME280;64573;50.328;15.014;2023-05-10T06:09:29;98527.03;;;13.74;49.16
75895;BME280;64573;50.328;15.014;2023-05-10T06:11:54;98525.16;;;14.19;48.04
75895;BME280;64573;50.328;15.014;2023-05-10T06:14:20;98517.25;;;13.86;49.31
75895;BME280;64573;50.328;15.014;2023-05-10T06:16:46;98529.31;;;14.22;48.85
75895;BME280;64573;50.328;15.014;2023-05-10T06:19:11;98512.78;;;13.53;50.41
75895;BME280;64573;50.328;15.014;2023-05-10T06:21:37;98522.28;;;14.59;48.87
75895;BME280;64573;50.328;15.014;2023-05-10T06:24:02;98518.91;;;13.87;49.92
75895;BME280;64573;50.328;15.014;2023-05-10T06:26:28;98524.16;;;14.20;49.59
75895;BME280;64573;50.328;15.014;2023-05-10T06:28:53;98533.03;;;14.27;49.24
75895;BME280;64573;50.328;15.014;2023-05-10T06:31:18;98514.78;;;14.93;48.54
75895;BME280;64573;50.328;15.014;2023-05-10T06:33:44;98512.66;;;14.95;48.20
75895;BME280;64573;50.328;15.014;2023-05-10T06:36:09;98513.84;;;15.85;46.13
75895;BME280;64573;50.328;15.014;2023-05-10T06:38:35;98515.00;;;15.34;47.21
75895;BME280;64573;50.328;15.014;2023-05-10T06:41:00;98519.50;;;14.72;48.64
75895;BME280;64573;50.328;15.014;2023-05-10T06:43:26;98508.50;;;15.79;46.84
75895;BME280;64573;50.328;15.014;2023-05-10T06:45:51;98520.22;;;16.09;46.39
75895;BME280;64573;50.328;15.014;2023-05-10T06:48:17;98508.94;;;16.42;45.48
75895;BME280;64573;50.328;15.014;2023-05-10T06:50:42;98504.44;;;16.06;45.19
75895;BME280;64573;50.328;15.014;2023-05-10T06:53:07;98487.69;;;15.97;44.98
75895;BME280;64573;50.328;15.014;2023-05-10T06:55:33;98494.03;;;16.21;45.34
75895;BME280;64573;50.328;15.014;2023-05-10T06:57:58;98499.44;;;16.51;44.38
75895;BME280;64573;50.328;15.014;2023-05-10T07:00:23;98491.22;;;17.12;42.87
75895;BME280;64573;50.328;15.014;2023-05-10T07:02:49;98498.94;;;16.85;43.39
75895;BME280;64573;50.328;15.014;2023-05-10T07:05:14;98503.19;;;16.92;43.87
75895;BME280;64573;50.328;15.014;2023-05-10T07:07:40;98500.84;;;17.43;42.42
75895;BME280;64573;50.328;15.014;2023-05-10T07:10:06;98482.81;;;16.48;43.89
75895;BME280;64573;50.328;15.014;2023-05-10T07:12:32;98505.09;;;17.27;42.86
75895;BME280;64573;50.328;15.014;2023-05-10T07:14:57;98509.56;;;17.21;43.37
75895;BME280;64573;50.328;15.014;2023-05-10T07:17:23;98502.75;;;17.19;42.37
75895;BME280;64573;50.328;15.014;2023-05-10T07:19:48;98502.88;;;17.12;43.04
75895;BME280;64573;50.328;15.014;2023-05-10T07:22:14;98493.91;;;17.00;43.78
75895;BME280;64573;50.328;15.014;2023-05-10T07:24:40;98497.44;;;17.12;42.73
75895;BME280;64573;50.328;15.014;2023-05-10T07:27:05;98492.13;;;17.05;43.59
75895;BME280;64573;50.328;15.014;2023-05-10T07:29:31;98500.75;;;17.26;42.48
75895;BME280;64573;50.328;15.014;2023-05-10T07:31:56;98493.88;;;18.10;41.58
75895;BME280;64573;50.328;15.014;2023-05-10T07:34:22;98496.25;;;18.18;41.76
75895;BME280;64573;50.328;15.014;2023-05-10T07:36:47;98491.63;;;17.79;41.07
75895;BME280;64573;50.328;15.014;2023-05-10T07:39:12;98481.47;;;18.26;40.88
75895;BME280;64573;50.328;15.014;2023-05-10T07:41:38;98492.97;;;17.29;42.66
75895;BME280;64573;50.328;15.014;2023-05-10T07:44:04;98491.19;;;17.47;42.37
75895;BME280;64573;50.328;15.014;2023-05-10T07:46:30;98485.25;;;18.87;40.23
75895;BME280;64573;50.328;15.014;2023-05-10T07:48:55;98503.22;;;17.04;43.09
75895;BME280;64573;50.328;15.014;2023-05-10T07:51:21;98495.44;;;17.19;42.60
75895;BME280;64573;50.328;15.014;2023-05-10T07:53:46;98484.19;;;17.74;42.19
75895;BME280;64573;50.328;15.014;2023-05-10T07:56:28;98484.88;;;18.50;41.01
75895;BME280;64573;50.328;15.014;2023-05-10T07:59:02;98495.53;;;19.36;39.10
75895;BME280;64573;50.328;15.014;2023-05-10T08:01:30;98496.94;;;18.88;40.41
75895;BME280;64573;50.328;15.014;2023-05-10T08:03:56;98483.31;;;19.77;37.53
75895;BME280;64573;50.328;15.014;2023-05-10T08:06:22;98497.88;;;20.09;37.77
75895;BME280;64573;50.328;15.014;2023-05-10T08:08:48;98496.78;;;20.32;37.71
75895;BME280;64573;50.328;15.014;2023-05-10T08:11:16;98500.31;;;20.55;36.57
75895;BME280;64573;50.328;15.014;2023-05-10T08:13:42;98491.25;;;20.27;36.97
75895;BME280;64573;50.328;15.014;2023-05-10T08:16:07;98490.59;;;20.15;36.92
75895;BME280;64573;50.328;15.014;2023-05-10T08:18:33;98497.50;;;20.23;36.44
75895;BME280;64573;50.328;15.014;2023-05-10T08:20:58;98486.25;;;19.70;36.35
75895;BME280;64573;50.328;15.014;2023-05-10T08:23:23;98493.63;;;20.68;35.79
75895;BME280;64573;50.328;15.014;2023-05-10T08:25:49;98485.78;;;20.22;35.44
75895;BME280;64573;50.328;15.014;2023-05-10T08:28:14;98504.00;;;20.71;35.55
75895;BME280;64573;50.328;15.014;2023-05-10T08:30:40;98497.19;;;19.97;36.79
75895;BME280;64573;50.328;15.014;2023-05-10T08:33:05;98490.63;;;19.93;36.23
75895;BME280;64573;50.328;15.014;2023-05-10T08:35:30;98491.66;;;20.36;36.29
75895;BME280;64573;50.328;15.014;2023-05-10T08:37:56;98488.91;;;20.90;35.93
75895;BME280;64573;50.328;15.014;2023-05-10T08:40:24;98490.38;;;21.82;33.49
75895;BME280;64573;50.328;15.014;2023-05-10T08:42:55;98491.50;;;21.96;33.17
75895;BME280;64573;50.328;15.014;2023-05-10T08:45:24;98485.59;;;21.20;33.18
75895;BME280;64573;50.328;15.014;2023-05-10T08:47:51;98507.81;;;20.70;34.90
75895;BME280;64573;50.328;15.014;2023-05-10T08:50:20;98498.09;;;20.52;34.64
75895;BME280;64573;50.328;15.014;2023-05-10T08:52:47;98505.81;;;20.92;35.47
75895;BME280;64573;50.328;15.014;2023-05-10T08:55:13;98496.50;;;21.57;34.56
75895;BME280;64573;50.328;15.014;2023-05-10T08:57:40;98497.31;;;20.56;35.42
75895;BME280;64573;50.328;15.014;2023-05-10T09:00:06;98493.81;;;20.88;34.55
75895;BME280;64573;50.328;15.014;2023-05-10T09:02:31;98496.50;;;20.07;35.80
75895;BME280;64573;50.328;15.014;2023-05-10T09:04:57;98488.72;;;19.16;38.05
75895;BME280;64573;50.328;15.014;2023-05-10T09:07:23;98495.88;;;19.78;37.47
75895;BME280;64573;50.328;15.014;2023-05-10T09:09:48;98498.97;;;20.08;36.39
75895;BME280;64573;50.328;15.014;2023-05-10T09:12:14;98496.97;;;20.48;37.12
75895;BME280;64573;50.328;15.014;2023-05-10T09:14:42;98495.03;;;21.39;35.77
75895;BME280;64573;50.328;15.014;2023-05-10T09:17:09;98502.13;;;21.40;35.06
75895;BME280;64573;50.328;15.014;2023-05-10T09:19:34;98499.03;;;22.26;34.11
75895;BME280;64573;50.328;15.014;2023-05-10T09:22:00;98492.44;;;21.60;34.39
75895;BME280;64573;50.328;15.014;2023-05-10T09:24:27;98493.97;;;20.49;36.34
75895;BME280;64573;50.328;15.014;2023-05-10T09:26:52;98497.06;;;22.12;34.93
75895;BME280;64573;50.328;15.014;2023-05-10T09:29:17;98490.88;;;21.79;33.35
75895;BME280;64573;50.328;15.014;2023-05-10T09:31:48;98486.50;;;22.46;32.78
75895;BME280;64573;50.328;15.014;2023-05-10T09:34:20;98506.97;;;22.33;32.45
75895;BME280;64573;50.328;15.014;2023-05-10T09:36:57;98493.38;;;22.84;32.53
75895;BME280;64573;50.328;15.014;2023-05-10T09:39:33;98494.78;;;23.07;31.70
75895;BME280;64573;50.328;15.014;2023-05-10T09:42:09;98501.88;;;23.08;32.24
75895;BME280;64573;50.328;15.014;2023-05-10T09:44:35;98496.69;;;23.01;32.10
75895;BME280;64573;50.328;15.014;2023-05-10T09:47:01;98507.78;;;22.44;32.29
75895;BME280;64573;50.328;15.014;2023-05-10T09:49:28;98494.66;;;21.68;34.80
75895;BME280;64573;50.328;15.014;2023-05-10T09:52:04;98493.94;;;22.76;31.75
75895;BME280;64573;50.328;15.014;2023-05-10T09:56:55;98490.94;;;23.13;31.42
75895;BME280;64573;50.328;15.014;2023-05-10T09:59:20;98485.47;;;23.33;31.63
75895;BME280;64573;50.328;15.014;2023-05-10T10:01:56;98492.28;;;23.41;31.57
75895;BME280;64573;50.328;15.014;2023-05-10T10:04:22;98487.31;;;21.79;33.70
75895;BME280;64573;50.328;15.014;2023-05-10T10:06:58;98487.66;;;23.01;31.98
75895;BME280;64573;50.328;15.014;2023-05-10T10:09:25;98483.81;;;22.81;32.50
75895;BME280;64573;50.328;15.014;2023-05-10T10:11:51;98485.38;;;23.74;31.21
75895;BME280;64573;50.328;15.014;2023-05-10T10:14:18;98490.19;;;24.08;30.35
75895;BME280;64573;50.328;15.014;2023-05-10T10:16:44;98482.84;;;23.93;30.27
75895;BME280;64573;50.328;15.014;2023-05-10T10:19:10;98493.09;;;24.76;29.57
75895;BME280;64573;50.328;15.014;2023-05-10T10:21:35;98484.03;;;24.31;29.52
75895;BME280;64573;50.328;15.014;2023-05-10T10:24:01;98478.56;;;23.51;30.29
75895;BME280;64573;50.328;15.014;2023-05-10T10:26:26;98500.25;;;24.23;29.34
75895;BME280;64573;50.328;15.014;2023-05-10T10:29:25;98502.31;;;23.81;30.26
75895;BME280;64573;50.328;15.014;2023-05-10T10:34:28;98491.94;;;24.43;30.31
75895;BME280;64573;50.328;15.014;2023-05-10T10:36:57;98475.34;;;23.08;31.85
75895;BME280;64573;50.328;15.014;2023-05-10T10:39:23;98482.16;;;23.42;31.44
75895;BME280;64573;50.328;15.014;2023-05-10T10:41:56;98485.75;;;24.17;30.65
75895;BME280;64573;50.328;15.014;2023-05-10T10:49:48;98465.25;;;24.59;30.14
75895;BME280;64573;50.328;15.014;2023-05-10T10:54:40;98484.09;;;25.05;29.29
75895;BME280;64573;50.328;15.014;2023-05-10T10:57:14;98483.16;;;24.46;29.40
75895;BME280;64573;50.328;15.014;2023-05-10T10:59:43;98479.03;;;24.48;29.10
75895;BME280;64573;50.328;15.014;2023-05-10T11:02:33;98477.44;;;23.67;31.98
75895;BME280;64573;50.328;15.014;2023-05-10T11:04:59;98475.88;;;22.54;32.20
75895;BME280;64573;50.328;15.014;2023-05-10T11:07:26;98468.28;;;24.03;30.69
75895;BME280;64573;50.328;15.014;2023-05-10T11:09:51;98467.97;;;23.14;32.78
75895;BME280;64573;50.328;15.014;2023-05-10T11:12:16;98473.13;;;23.61;31.30
75895;BME280;64573;50.328;15.014;2023-05-10T11:14:42;98465.72;;;24.21;29.93
75895;BME280;64573;50.328;15.014;2023-05-10T11:17:37;98470.53;;;24.50;30.38
75895;BME280;64573;50.328;15.014;2023-05-10T11:20:09;98460.09;;;25.20;28.57
75895;BME280;64573;50.328;15.014;2023-05-10T11:22:52;98466.66;;;25.48;28.91
75895;BME280;64573;50.328;15.014;2023-05-10T11:25:18;98465.69;;;25.39;28.04
75895;BME280;64573;50.328;15.014;2023-05-10T11:27:44;98480.41;;;23.81;31.94
75895;BME280;64573;50.328;15.014;2023-05-10T11:30:10;98473.53;;;21.11;34.90
75895;BME280;64573;50.328;15.014;2023-05-10T11:32:39;98461.09;;;22.50;32.73
75895;BME280;64573;50.328;15.014;2023-05-10T11:35:10;98476.50;;;21.41;34.79
75895;BME280;64573;50.328;15.014;2023-05-10T11:37:37;98476.69;;;22.65;33.16
75895;BME280;64573;50.328;15.014;2023-05-10T11:40:07;98478.28;;;23.68;31.13
75895;BME280;64573;50.328;15.014;2023-05-10T11:42:37;98474.53;;;22.82;32.79
75895;BME280;64573;50.328;15.014;2023-05-10T11:45:02;98467.94;;;23.34;32.21
75895;BME280;64573;50.328;15.014;2023-05-10T11:47:27;98471.72;;;23.69;30.51
75895;BME280;64573;50.328;15.014;2023-05-10T11:49:53;98467.16;;;23.19;31.33
75895;BME280;64573;50.328;15.014;2023-05-10T11:52:18;98466.53;;;23.62;31.23
75895;BME280;64573;50.328;15.014;2023-05-10T11:54:54;98472.72;;;24.48;30.42
75895;BME280;64573;50.328;15.014;2023-05-10T11:57:20;98471.13;;;25.15;29.89
75895;BME280;64573;50.328;15.014;2023-05-10T11:59:46;98476.91;;;23.71;32.41
75895;BME280;64573;50.328;15.014;2023-05-10T12:02:13;98465.25;;;23.04;32.73
75895;BME280;64573;50.328;15.014;2023-05-10T12:04:38;98470.28;;;23.87;31.47
75895;BME280;64573;50.328;15.014;2023-05-10T12:07:04;98471.50;;;23.35;33.13
75895;BME280;64573;50.328;15.014;2023-05-10T12:09:30;98482.16;;;24.71;29.96
75895;BME280;64573;50.328;15.014;2023-05-10T12:11:56;98469.16;;;25.21;29.14
75895;BME280;64573;50.328;15.014;2023-05-10T12:14:24;98483.03;;;25.00;29.12
75895;BME280;64573;50.328;15.014;2023-05-10T12:16:49;98486.63;;;24.07;31.07
75895;BME280;64573;50.328;15.014;2023-05-10T12:19:18;98478.19;;;23.99;30.64
75895;BME280;64573;50.328;15.014;2023-05-10T12:21:45;98487.34;;;22.67;32.32
75895;BME280;64573;50.328;15.014;2023-05-10T12:24:10;98473.94;;;22.55;33.28
75895;BME280;64573;50.328;15.014;2023-05-10T12:26:36;98487.13;;;23.19;32.37
75895;BME280;64573;50.328;15.014;2023-05-10T12:29:15;98495.84;;;24.27;31.29
75895;BME280;64573;50.328;15.014;2023-05-10T12:31:54;98491.06;;;23.88;32.25
75895;BME280;64573;50.328;15.014;2023-05-10T12:34:24;98497.88;;;23.96;31.33
75895;BME280;64573;50.328;15.014;2023-05-10T12:36:52;98491.44;;;23.56;31.70
75895;BME280;64573;50.328;15.014;2023-05-10T12:39:18;98486.22;;;23.64;31.69
75895;BME280;64573;50.328;15.014;2023-05-10T12:41:43;98497.94;;;23.90;31.19
75895;BME280;64573;50.328;15.014;2023-05-10T12:44:09;98502.66;;;22.78;33.01
75895;BME280;64573;50.328;15.014;2023-05-10T12:46:36;98500.75;;;22.83;32.71
75895;BME280;64573;50.328;15.014;2023-05-10T12:49:01;98498.53;;;23.52;31.69
75895;BME280;64573;50.328;15.014;2023-05-10T12:51:27;98498.31;;;23.28;32.58
75895;BME280;64573;50.328;15.014;2023-05-10T12:53:52;98496.25;;;23.89;31.40
75895;BME280;64573;50.328;15.014;2023-05-10T12:56:20;98495.00;;;22.70;32.42
75895;BME280;64573;50.328;15.014;2023-05-10T12:58:45;98492.97;;;22.14;34.78
75895;BME280;64573;50.328;15.014;2023-05-10T13:01:13;98506.19;;;22.58;32.92
75895;BME280;64573;50.328;15.014;2023-05-10T13:03:38;98501.56;;;22.74;33.28
75895;BME280;64573;50.328;15.014;2023-05-10T13:06:04;98495.59;;;23.33;32.46
75895;BME280;64573;50.328;15.014;2023-05-10T13:08:30;98493.34;;;22.58;33.47
75895;BME280;64573;50.328;15.014;2023-05-10T13:10:59;98500.63;;;22.22;33.21
75895;BME280;64573;50.328;15.014;2023-05-10T13:13:24;98486.72;;;22.19;34.20
75895;BME280;64573;50.328;15.014;2023-05-10T13:15:50;98507.06;;;23.15;33.50
75895;BME280;64573;50.328;15.014;2023-05-10T13:18:15;98498.88;;;23.15;32.96